^^
Meteo Knjazevac Station Historical Data
Daily Summary for May 20, 2022 Units:  English    Metric   Both
Daily Weekly Monthly Yearly Custom
  High: Low: Average:
Temperature: 85.2 °F 38.8 °F 63.1 °F
Dew Point: 50.2 °F 34.7 °F 42.7 °F
Humidity: 88% 23% 53%
Wind Speed: 8mph 0mph 2.7mph
Wind Gust: 14mph - -
Wind- - WSW
Pressure: 30.36 in 30.18 in -
Precipitation: 0.00 in    
Historical Graphs
 
 
Tabular Data for May 20, 2022
Time Temperature Dew Point Pressure Wind Wind Speed Wind Gust Humidity Rainfall Rate (Hourly) solar Conditions
00:00 48.5 °F 39.1 °F 30.34 in Calm   2 mph 70% 0.00 in 0 W/m2
00:10 47.8 °F 39.2 °F 30.34 in NNW 1 mph 2 mph 72% 0.00 in 0 W/m2
00:20 47.2 °F 39 °F 30.34 in West 1 mph 2 mph 73% 0.00 in 0 W/m2
00:30 46.4 °F 38.2 °F 30.34 in WNW 1 mph 2 mph 73% 0.00 in 0 W/m2
00:50 45.5 °F 38 °F 30.34 in WNW 1 mph 2 mph 75% 0.00 in 0 W/m2
01:00 45.1 °F 37.7 °F 30.34 in WNW 2 mph 3 mph 75% 0.00 in 0 W/m2
01:20 44.4 °F 37.7 °F 30.34 in West 2 mph 2 mph 77% 0.00 in 0 W/m2
01:30 44 °F 37.5 °F 30.34 in West 3 mph 4 mph 78% 0.00 in 0 W/m2
01:40 43.9 °F 37.8 °F 30.34 in West 2 mph 5 mph 79% 0.00 in 0 W/m2
02:00 43.3 °F 37.3 °F 30.34 in Calm   3 mph 79% 0.00 in 0 W/m2
02:10 42.9 °F 36.8 °F 30.34 in WNW 2 mph 2 mph 79% 0.00 in 0 W/m2
02:20 42.4 °F 36.4 °F 30.34 in WNW 2 mph 3 mph 79% 0.00 in 0 W/m2
02:30 41.9 °F 36.2 °F 30.34 in West 1 mph 3 mph 80% 0.00 in 0 W/m2
02:40 41.5 °F 35.8 °F 30.34 in West 2 mph 4 mph 80% 0.00 in 0 W/m2
02:50 41.4 °F 36 °F 30.34 in West 2 mph 4 mph 81% 0.00 in 0 W/m2
03:00 41.3 °F 35.9 °F 30.34 in WNW 1 mph 3 mph 81% 0.00 in 0 W/m2
03:10 41 °F 35.6 °F 30.34 in WNW 1 mph 3 mph 81% 0.00 in 0 W/m2
03:20 40.6 °F 35.9 °F 30.34 in West 1 mph 3 mph 83% 0.00 in 0 W/m2
03:30 40.3 °F 35.5 °F 30.34 in WNW 1 mph 3 mph 83% 0.00 in 0 W/m2
03:40 40.1 °F 35.4 °F 30.34 in West 2 mph 4 mph 83% 0.00 in 0 W/m2
03:50 40.1 °F 35.7 °F 30.34 in WNW 2 mph 4 mph 84% 0.00 in 0 W/m2
04:10 39.9 °F 35.5 °F 30.34 in NW 2 mph 5 mph 84% 0.00 in 0 W/m2
04:20 39.7 °F 35.3 °F 30.34 in WNW 2 mph 4 mph 84% 0.00 in 0 W/m2
04:30 39.6 °F 35.1 °F 30.34 in WNW 2 mph 5 mph 84% 0.00 in 0 W/m2
04:40 39.4 °F 35 °F 30.35 in WNW 1 mph 3 mph 84% 0.00 in 0 W/m2
04:50 39.4 °F 35.2 °F 30.35 in WNW 2 mph 3 mph 85% 0.00 in 0 W/m2
05:00 39.2 °F 35.1 °F 30.35 in WNW 1 mph 3 mph 85% 0.00 in 0 W/m2
05:10 39.2 °F 35.1 °F 30.35 in West 2 mph 4 mph 85% 0.00 in 7 W/m2
05:20 39 °F 34.9 °F 30.35 in West 2 mph 5 mph 85% 0.00 in 14 W/m2
05:30 38.8 °F 34.7 °F 30.35 in WNW 2 mph 3 mph 85% 0.00 in 19 W/m2
05:40 39 °F 35.2 °F 30.35 in West 2 mph 4 mph 86% 0.00 in 27 W/m2
05:50 38.8 °F 34.7 °F 30.35 in NW 2 mph 4 mph 85% 0.00 in 33 W/m2
06:00 39 °F 35.2 °F 30.36 in WNW 1 mph 4 mph 86% 0.00 in 80 W/m2
06:10 39.2 °F 35.4 °F 30.36 in WNW 1 mph 4 mph 86% 0.00 in 106 W/m2
06:20 39.7 °F 36.4 °F 30.36 in WNW 2 mph 5 mph 88% 0.00 in 100 W/m2
06:30 40.1 °F 36.8 °F 30.36 in West 2 mph 5 mph 88% 0.00 in 154 W/m2
06:40 40.8 °F 37.5 °F 30.36 in WNW 1 mph 3 mph 88% 0.00 in 183 W/m2
06:50 42 °F 38.7 °F 30.36 in Calm   3 mph 88% 0.00 in 212 W/m2
07:00 42.9 °F 39 °F 30.36 in WNW 1 mph 3 mph 86% 0.00 in 239 W/m2
07:10 43.8 °F 39.9 °F 30.36 in NW 1 mph 2 mph 86% 0.00 in 274 W/m2
07:20 44.9 °F 40.7 °F 30.36 in Calm   3 mph 85% 0.00 in 306 W/m2
07:30 46.3 °F 41.5 °F 30.35 in WNW 2 mph 4 mph 83% 0.00 in 339 W/m2
07:40 47.8 °F 42.2 °F 30.35 in Calm   3 mph 81% 0.00 in 371 W/m2
07:50 49 °F 43.1 °F 30.35 in Calm   2 mph 80% 0.00 in 403 W/m2
08:00 50.5 °F 43.9 °F 30.35 in NNW 1 mph 3 mph 78% 0.00 in 435 W/m2
08:20 54.6 °F 46.4 °F 30.35 in ESE 1 mph 3 mph 74% 0.00 in 502 W/m2
08:30 57.8 °F 47.3 °F 30.35 in SE 2 mph 5 mph 68% 0.00 in 534 W/m2
08:40 60.4 °F 48.1 °F 30.35 in SSE 2 mph 5 mph 64% 0.00 in 569 W/m2
08:50 62.4 °F 49.2 °F 30.35 in ESE 2 mph 7 mph 62% 0.00 in 610 W/m2
09:00 64.2 °F 49.1 °F 30.34 in SSE 2 mph 7 mph 58% 0.00 in 646 W/m2
09:10 65.8 °F 47.7 °F 30.34 in SW 6 mph 10 mph 52% 0.00 in 678 W/m2
09:20 66.9 °F 47.7 °F 30.34 in SW 6 mph 10 mph 50% 0.00 in 706 W/m2
09:30 68 °F 47.6 °F 30.34 in SW 6 mph 11 mph 48% 0.00 in 728 W/m2
09:40 68.7 °F 46.5 °F 30.34 in SW 7 mph 12 mph 45% 0.00 in 754 W/m2
09:50 69.4 °F 46.6 °F 30.33 in SW 7 mph 12 mph 44% 0.00 in 777 W/m2
10:00 70 °F 45.8 °F 30.33 in SW 7 mph 12 mph 42% 0.00 in 798 W/m2
10:10 70.7 °F 47.1 °F 30.32 in SW 6 mph 14 mph 43% 0.00 in 818 W/m2
10:20 71.4 °F 45.8 °F 30.32 in SW 7 mph 9 mph 40% 0.00 in 837 W/m2
10:30 72.1 °F 45.1 °F 30.32 in SSW 5 mph 9 mph 38% 0.00 in 855 W/m2
10:40 73 °F 46.6 °F 30.32 in SW 3 mph 7 mph 39% 0.00 in 91 W/m2
10:50 73.8 °F 46.6 °F 30.32 in SW 3 mph 9 mph 38% 0.00 in 886 W/m2
11:00 73.8 °F 47.9 °F 30.32 in South 3 mph 9 mph 40% 0.00 in 900 W/m2
11:10 74.4 °F 48.5 °F 30.31 in SW 5 mph 10 mph 40% 0.00 in 208 W/m2
11:20 75 °F 48.4 °F 30.31 in SW 5 mph 10 mph 39% 0.00 in 922 W/m2
11:30 75.6 °F 48.9 °F 30.31 in SW 3 mph 9 mph 39% 0.00 in 925 W/m2
11:40 76 °F 48.6 °F 30.30 in SSW 5 mph 8 mph 38% 0.00 in 807 W/m2
11:50 76.8 °F 50 °F 30.30 in SW 5 mph 9 mph 39% 0.00 in 946 W/m2
12:00 77.2 °F 49.6 °F 30.30 in SW 5 mph 10 mph 38% 0.00 in 950 W/m2
12:10 77.7 °F 50.1 °F 30.29 in SW 5 mph 9 mph 38% 0.00 in 953 W/m2
12:20 78 °F 49.6 °F 30.29 in South 2 mph 6 mph 37% 0.00 in 955 W/m2
12:30 78.6 °F 50.2 °F 30.28 in SW 2 mph 7 mph 37% 0.00 in 955 W/m2
12:40 79 °F 48.2 °F 30.28 in South 3 mph 8 mph 34% 0.00 in 953 W/m2
12:50 79.7 °F 48.8 °F 30.28 in NNW 2 mph 8 mph 34% 0.00 in 935 W/m2
13:00 80.7 °F 49 °F 30.28 in SW 3 mph 7 mph 33% 0.00 in 489 W/m2
13:10 80.7 °F 47.3 °F 30.27 in SSE 3 mph 9 mph 31% 0.00 in 940 W/m2
13:20 81.1 °F 48.4 °F 30.27 in NE 3 mph 6 mph 32% 0.00 in 932 W/m2
13:30 81.7 °F 47.2 °F 30.26 in NE 2 mph 9 mph 30% 0.00 in 923 W/m2
13:40 81.5 °F 47.1 °F 30.26 in ESE 3 mph 8 mph 30% 0.00 in 912 W/m2
13:50 82.2 °F 49.4 °F 30.25 in SSW 3 mph 8 mph 32% 0.00 in 900 W/m2
14:00 82.9 °F 49.2 °F 30.25 in SW 3 mph 7 mph 31% 0.00 in 886 W/m2
14:10 82.8 °F 49.9 °F 30.25 in SSW 2 mph 7 mph 32% 0.00 in 871 W/m2
14:20 82.9 °F 47.4 °F 30.24 in SSW 3 mph 9 mph 29% 0.00 in 855 W/m2
14:30 82.9 °F 47.4 °F 30.24 in SSE 6 mph 11 mph 29% 0.00 in 837 W/m2
14:40 83.3 °F 47.7 °F 30.24 in SSW 5 mph 8 mph 29% 0.00 in 819 W/m2
14:50 83.4 °F 48.7 °F 30.24 in SW 3 mph 8 mph 30% 0.00 in 798 W/m2
15:00 83.7 °F 48.9 °F 30.23 in SW 3 mph 8 mph 30% 0.00 in 777 W/m2
15:10 84 °F 48.3 °F 30.23 in SW 3 mph 7 mph 29% 0.00 in 755 W/m2
15:20 83.7 °F 48.9 °F 30.23 in SSW 3 mph 8 mph 30% 0.00 in 731 W/m2
15:30 84.3 °F 49.5 °F 30.22 in SSW 2 mph 6 mph 30% 0.00 in 706 W/m2
15:40 84.6 °F 49.7 °F 30.22 in SW 3 mph 7 mph 30% 0.00 in 681 W/m2
15:50 84.7 °F 48 °F 30.22 in West 5 mph 10 mph 28% 0.00 in 654 W/m2
16:00 84.9 °F 49.1 °F 30.22 in West 2 mph 7 mph 29% 0.00 in 627 W/m2
16:10 85.2 °F 49.4 °F 30.21 in West 5 mph 10 mph 29% 0.00 in 599 W/m2
16:20 84.8 °F 49 °F 30.21 in WSW 6 mph 12 mph 29% 0.00 in 571 W/m2
16:30 84.6 °F 47.9 °F 30.21 in SW 6 mph 12 mph 28% 0.00 in 541 W/m2
16:40 84.2 °F 47.6 °F 30.20 in SW 6 mph 12 mph 28% 0.00 in 510 W/m2
16:50 84.2 °F 46.6 °F 30.20 in SW 7 mph 13 mph 27% 0.00 in 477 W/m2
17:00 84.4 °F 46.7 °F 30.20 in SW 5 mph 10 mph 27% 0.00 in 442 W/m2
17:10 84.4 °F 44.7 °F 30.20 in SW 7 mph 11 mph 25% 0.00 in 409 W/m2
17:20 84.1 °F 43.4 °F 30.20 in SW 8 mph 13 mph 24% 0.00 in 375 W/m2
17:30 83.7 °F 43 °F 30.19 in SW 7 mph 12 mph 24% 0.00 in 343 W/m2
17:40 83.5 °F 42.9 °F 30.19 in SW 7 mph 12 mph 24% 0.00 in 308 W/m2
17:50 83.2 °F 42.6 °F 30.19 in SW 6 mph 12 mph 24% 0.00 in 275 W/m2
18:00 83.1 °F 42.6 °F 30.19 in SW 6 mph 11 mph 24% 0.00 in 245 W/m2
18:10 82.9 °F 42.4 °F 30.19 in SW 6 mph 11 mph 24% 0.00 in 212 W/m2
18:20 82.6 °F 41 °F 30.19 in SW 5 mph 9 mph 23% 0.00 in 184 W/m2
18:30 82.1 °F 40.6 °F 30.19 in SW 6 mph 8 mph 23% 0.00 in 155 W/m2
18:40 80.4 °F 43.4 °F 30.18 in SW 5 mph 8 mph 27% 0.00 in 127 W/m2
18:50 79.5 °F 40.6 °F 30.18 in WSW 2 mph 7 mph 25% 0.00 in 101 W/m2
19:00 79.4 °F 42.5 °F 30.18 in WSW 3 mph 6 mph 27% 0.00 in 73 W/m2
19:10 79.2 °F 42.3 °F 30.18 in SW 2 mph 6 mph 27% 0.00 in 50 W/m2
19:20 78.5 °F 43.6 °F 30.18 in SW 2 mph 5 mph 29% 0.00 in 26 W/m2
19:30 77.2 °F 43.3 °F 30.18 in SW 2 mph 5 mph 30% 0.00 in 18 W/m2
19:40 75.4 °F 43.5 °F 30.18 in South 1 mph 3 mph 32% 0.00 in 12 W/m2
19:50 73.6 °F 42.7 °F 30.19 in South 1 mph 5 mph 33% 0.00 in 3 W/m2
20:00 72 °F 42.8 °F 30.18 in SSW 2 mph 4 mph 35% 0.00 in 0 W/m2
20:10 70.3 °F 44.2 °F 30.18 in WSW 2 mph 5 mph 39% 0.00 in 0 W/m2
20:20 68.9 °F 45.5 °F 30.19 in WSW 2 mph 4 mph 43% 0.00 in 0 W/m2
20:30 67.5 °F 44.2 °F 30.19 in WSW 1 mph 5 mph 43% 0.00 in 0 W/m2
20:40 66.3 °F 43.7 °F 30.19 in West 1 mph 3 mph 44% 0.00 in 0 W/m2
20:50 65.1 °F 44.4 °F 30.19 in West 1 mph 3 mph 47% 0.00 in 0 W/m2
21:00 63.9 °F 43.8 °F 30.19 in NW 1 mph 3 mph 48% 0.00 in 0 W/m2
21:10 62.8 °F 42.8 °F 30.19 in West 1 mph 2 mph 48% 0.00 in 0 W/m2
21:20 61.9 °F 42.5 °F 30.19 in NW 1 mph 4 mph 49% 0.00 in 0 W/m2
21:30 60.8 °F 42 °F 30.19 in West 1 mph 2 mph 50% 0.00 in 0 W/m2
21:40 59.7 °F 42.5 °F 30.19 in WNW 2 mph 4 mph 53% 0.00 in 0 W/m2
21:50 57.9 °F 41.4 °F 30.19 in WNW 1 mph 4 mph 54% 0.00 in 0 W/m2
22:00 56.9 °F 40.4 °F 30.18 in West 2 mph 5 mph 54% 0.00 in 0 W/m2
22:10 56.5 °F 40 °F 30.18 in West 1 mph 3 mph 54% 0.00 in 0 W/m2
22:20 55.8 °F 39.8 °F 30.18 in WNW 1 mph 5 mph 55% 0.00 in 0 W/m2
22:30 55.2 °F 39.3 °F 30.18 in Calm   2 mph 55% 0.00 in 0 W/m2
22:40 54.3 °F 39.9 °F 30.18 in Calm   2 mph 58% 0.00 in 0 W/m2
22:50 53.4 °F 39.5 °F 30.18 in West 1 mph 2 mph 59% 0.00 in 0 W/m2
23:00 52.5 °F 38.6 °F 30.19 in WNW 1 mph 3 mph 59% 0.00 in 0 W/m2
23:10 51.6 °F 38.2 °F 30.19 in West 1 mph 3 mph 60% 0.00 in 0 W/m2
23:20 50.6 °F 38 °F 30.18 in WSW 3 mph 6 mph 62% 0.00 in 0 W/m2
23:30 50.2 °F 37.7 °F 30.18 in WNW 2 mph 5 mph 62% 0.00 in 0 W/m2
23:40 50.2 °F 37.7 °F 30.18 in West 2 mph 4 mph 62% 0.00 in 0 W/m2
23:50 49.8 °F 37.7 °F 30.18 in NW 2 mph 4 mph 63% 0.00 in 0 W/m2
Knjazevac, Serbia
Compliments of Weather Underground - 2 mb